This is the latest recevied weather packets stored in our database for station/object AD0YN. If no packets are shown the sender has not sent any weather packets the latest 1 day(s).
| Time | Temp. | Humidity | Pressure | Rain* | Wind** | Luminosity | Snow |
|---|---|---|---|---|---|---|---|
| 1778096521 | 15° C | 35% | 1017.8 hPa | 0 mm | - | 862 W/m² | - |
| 1778095612 | 15° C | 31% | 1017.7 hPa | 0 mm | - | 907 W/m² | - |
| 1778094399 | 15° C | 31% | 1017.9 hPa | 0 mm | - | 996 W/m² | - |
| 1778093793 | 13.89° C | 34% | 1018.1 hPa | 0 mm | - | 486 W/m² | - |
| 1778093489 | 13.89° C | 32% | 1018.1 hPa | 0 mm | - | 461 W/m² | - |
| 1778092276 | 13.89° C | 37% | 1017.9 hPa | 0 mm | - | 521 W/m² | - |
| 1778091974 | 13.89° C | 38% | 1018.1 hPa | 0 mm | - | 598 W/m² | - |
| 1778089851 | 14.44° C | 36% | 1018.2 hPa | 0 mm | - | 464 W/m² | - |
| 1778088944 | 14.44° C | 32% | 1018 hPa | 0 mm | - | 698 W/m² | - |
| 1778088640 | 14.44° C | 35% | 1018.1 hPa | 0 mm | - | 598 W/m² | - |
| 1778088338 | 14.44° C | 31% | 1018.3 hPa | 0 mm | - | 563 W/m² | - |
| 1778086824 | 13.89° C | 33% | 1018.1 hPa | 0 mm | - | 631 W/m² | - |
| 1778086218 | 14.44° C | 32% | 1018.2 hPa | 0 mm | - | 747 W/m² | - |
| 1778085004 | 14.44° C | 33% | 1018.2 hPa | 0 mm | - | 776 W/m² | - |
| 1778083792 | 14.44° C | 34% | 1018.1 hPa | 0 mm | - | 767 W/m² | - |
| 1778083187 | 13.89° C | 32% | 1018 hPa | 0 mm | - | 739 W/m² | - |
| 1778081771 | 13.33° C | 33% | 1017.9 hPa | 0 mm | - | 672 W/m² | - |
| 1778080561 | 13.33° C | 41% | 1017.9 hPa | 0 mm | - | 622 W/m² | - |
| 1778080258 | 12.78° C | 40% | 1018 hPa | 0 mm | - | 601 W/m² | - |
| 1778079348 | 12.78° C | 42% | 1017.9 hPa | 0 mm | - | 581 W/m² | - |
| 1778077231 | 11.67° C | 49% | 1017.3 hPa | 0 mm | - | 326 W/m² | - |
| 1778076928 | 11.67° C | 48% | 1017.6 hPa | 0 mm | - | 335 W/m² | - |
| 1778075110 | 10.56° C | 50% | 1017 hPa | 0 mm | - | 251 W/m² | - |
| 1778074200 | 10.56° C | 52% | 1017.2 hPa | 0 mm | - | 346 W/m² | - |
| 1778070265 | 7.78° C | 66% | 1016 hPa | 0 mm | - | 79 W/m² | - |
* Rain latest hour (hover to see other rain measurements)
** Current wind speed in m/s (hover to see current wind gust speed)